sensor_id;sensor_type;location;lat;lon;timestamp;P1;durP1;ratioP1;P2;durP2;ratioP2
37973;SDS011;23796;51.458;7.000;2022-11-18T00:01:29;4.20;;;1.13;;
37973;SDS011;23796;51.458;7.000;2022-11-18T00:03:58;3.42;;;0.98;;
37973;SDS011;23796;51.458;7.000;2022-11-18T00:06:27;5.40;;;1.92;;
37973;SDS011;23796;51.458;7.000;2022-11-18T00:08:54;4.18;;;1.17;;
37973;SDS011;23796;51.458;7.000;2022-11-18T00:11:23;4.05;;;1.10;;
37973;SDS011;23796;51.458;7.000;2022-11-18T00:14:21;4.43;;;1.13;;
37973;SDS011;23796;51.458;7.000;2022-11-18T00:19:22;5.10;;;0.90;;
37973;SDS011;23796;51.458;7.000;2022-11-18T00:21:53;3.70;;;0.80;;
37973;SDS011;23796;51.458;7.000;2022-11-18T00:24:19;2.72;;;0.80;;
37973;SDS011;23796;51.458;7.000;2022-11-18T00:26:56;4.00;;;1.05;;
37973;SDS011;23796;51.458;7.000;2022-11-18T00:29:25;4.53;;;1.33;;
37973;SDS011;23796;51.458;7.000;2022-11-18T00:31:55;2.72;;;0.95;;
37973;SDS011;23796;51.458;7.000;2022-11-18T00:34:23;6.40;;;1.02;;
37973;SDS011;23796;51.458;7.000;2022-11-18T00:36:52;4.15;;;1.08;;
37973;SDS011;23796;51.458;7.000;2022-11-18T00:39:20;4.82;;;1.40;;
37973;SDS011;23796;51.458;7.000;2022-11-18T00:41:48;4.38;;;1.15;;
37973;SDS011;23796;51.458;7.000;2022-11-18T00:44:35;3.15;;;1.05;;
37973;SDS011;23796;51.458;7.000;2022-11-18T00:47:01;5.07;;;1.67;;
37973;SDS011;23796;51.458;7.000;2022-11-18T00:49:29;4.47;;;1.17;;
37973;SDS011;23796;51.458;7.000;2022-11-18T00:51:54;3.67;;;0.88;;
37973;SDS011;23796;51.458;7.000;2022-11-18T00:54:20;3.80;;;0.82;;
37973;SDS011;23796;51.458;7.000;2022-11-18T00:56:48;4.00;;;1.10;;
37973;SDS011;23796;51.458;7.000;2022-11-18T00:59:14;4.00;;;1.13;;
37973;SDS011;23796;51.458;7.000;2022-11-18T01:01:41;4.22;;;1.20;;
37973;SDS011;23796;51.458;7.000;2022-11-18T01:04:07;4.10;;;1.30;;
37973;SDS011;23796;51.458;7.000;2022-11-18T01:06:35;4.90;;;1.00;;
37973;SDS011;23796;51.458;7.000;2022-11-18T01:09:01;5.35;;;1.50;;
37973;SDS011;23796;51.458;7.000;2022-11-18T01:11:27;4.32;;;1.00;;
37973;SDS011;23796;51.458;7.000;2022-11-18T01:14:11;3.22;;;1.23;;
37973;SDS011;23796;51.458;7.000;2022-11-18T01:16:36;3.78;;;1.13;;
37973;SDS011;23796;51.458;7.000;2022-11-18T01:19:04;3.08;;;0.98;;
37973;SDS011;23796;51.458;7.000;2022-11-18T01:21:32;4.20;;;0.98;;
37973;SDS011;23796;51.458;7.000;2022-11-18T01:23:58;2.97;;;0.88;;
37973;SDS011;23796;51.458;7.000;2022-11-18T01:26:23;2.95;;;0.80;;
37973;SDS011;23796;51.458;7.000;2022-11-18T01:28:49;4.57;;;1.33;;
37973;SDS011;23796;51.458;7.000;2022-11-18T01:31:16;3.72;;;1.10;;
37973;SDS011;23796;51.458;7.000;2022-11-18T01:33:43;4.03;;;1.30;;
37973;SDS011;23796;51.458;7.000;2022-11-18T01:36:28;2.97;;;0.75;;
37973;SDS011;23796;51.458;7.000;2022-11-18T01:38:54;5.50;;;1.17;;
37973;SDS011;23796;51.458;7.000;2022-11-18T01:41:23;4.13;;;1.10;;
37973;SDS011;23796;51.458;7.000;2022-11-18T01:43:51;6.30;;;1.75;;
37973;SDS011;23796;51.458;7.000;2022-11-18T01:46:52;4.50;;;1.23;;
37973;SDS011;23796;51.458;7.000;2022-11-18T01:49:17;5.20;;;1.23;;
37973;SDS011;23796;51.458;7.000;2022-11-18T01:51:48;7.22;;;1.35;;
37973;SDS011;23796;51.458;7.000;2022-11-18T01:54:23;5.53;;;1.30;;
37973;SDS011;23796;51.458;7.000;2022-11-18T01:57:02;5.78;;;1.23;;
37973;SDS011;23796;51.458;7.000;2022-11-18T01:59:34;5.22;;;1.13;;
37973;SDS011;23796;51.458;7.000;2022-11-18T02:02:07;5.55;;;1.17;;
37973;SDS011;23796;51.458;7.000;2022-11-18T02:04:35;5.65;;;1.52;;
37973;SDS011;23796;51.458;7.000;2022-11-18T02:07:05;4.35;;;1.30;;
37973;SDS011;23796;51.458;7.000;2022-11-18T02:09:32;4.32;;;1.35;;
37973;SDS011;23796;51.458;7.000;2022-11-18T02:11:58;3.53;;;0.82;;
37973;SDS011;23796;51.458;7.000;2022-11-18T02:14:34;4.43;;;1.48;;
37973;SDS011;23796;51.458;7.000;2022-11-18T02:30:41;4.90;;;1.27;;
37973;SDS011;23796;51.458;7.000;2022-11-18T02:33:23;4.43;;;1.45;;
37973;SDS011;23796;51.458;7.000;2022-11-18T02:36:05;4.28;;;1.20;;
37973;SDS011;23796;51.458;7.000;2022-11-18T02:38:41;3.83;;;1.27;;
37973;SDS011;23796;51.458;7.000;2022-11-18T02:41:19;4.13;;;1.25;;
37973;SDS011;23796;51.458;7.000;2022-11-18T02:43:51;6.03;;;1.15;;
37973;SDS011;23796;51.458;7.000;2022-11-18T02:46:22;4.15;;;0.93;;
37973;SDS011;23796;51.458;7.000;2022-11-18T02:48:50;5.53;;;1.20;;
37973;SDS011;23796;51.458;7.000;2022-11-18T02:51:18;4.05;;;1.13;;
37973;SDS011;23796;51.458;7.000;2022-11-18T02:53:51;3.17;;;1.00;;
37973;SDS011;23796;51.458;7.000;2022-11-18T02:56:22;4.75;;;1.02;;
37973;SDS011;23796;51.458;7.000;2022-11-18T02:58:52;4.50;;;1.05;;
37973;SDS011;23796;51.458;7.000;2022-11-18T03:01:27;4.18;;;1.08;;
37973;SDS011;23796;51.458;7.000;2022-11-18T03:03:57;3.92;;;1.13;;
37973;SDS011;23796;51.458;7.000;2022-11-18T03:06:27;5.38;;;1.38;;
37973;SDS011;23796;51.458;7.000;2022-11-18T03:11:33;4.32;;;0.82;;
37973;SDS011;23796;51.458;7.000;2022-11-18T03:14:17;4.30;;;1.10;;
37973;SDS011;23796;51.458;7.000;2022-11-18T03:19:21;5.13;;;1.60;;
37973;SDS011;23796;51.458;7.000;2022-11-18T03:21:56;7.05;;;1.27;;
37973;SDS011;23796;51.458;7.000;2022-11-18T03:24:32;4.43;;;1.35;;
37973;SDS011;23796;51.458;7.000;2022-11-18T03:27:24;5.93;;;1.40;;
37973;SDS011;23796;51.458;7.000;2022-11-18T03:30:07;4.75;;;1.40;;
37973;SDS011;23796;51.458;7.000;2022-11-18T03:32:43;3.58;;;1.30;;
37973;SDS011;23796;51.458;7.000;2022-11-18T03:35:23;4.82;;;1.20;;
37973;SDS011;23796;51.458;7.000;2022-11-18T03:37:55;5.82;;;1.23;;
37973;SDS011;23796;51.458;7.000;2022-11-18T03:40:29;4.32;;;1.42;;
37973;SDS011;23796;51.458;7.000;2022-11-18T03:42:59;4.72;;;1.55;;
37973;SDS011;23796;51.458;7.000;2022-11-18T03:45:33;5.70;;;1.83;;
37973;SDS011;23796;51.458;7.000;2022-11-18T03:48:08;6.57;;;1.70;;
37973;SDS011;23796;51.458;7.000;2022-11-18T03:50:41;5.90;;;1.50;;
37973;SDS011;23796;51.458;7.000;2022-11-18T03:53:10;4.13;;;1.58;;
37973;SDS011;23796;51.458;7.000;2022-11-18T03:55:41;5.70;;;1.27;;
37973;SDS011;23796;51.458;7.000;2022-11-18T03:58:17;4.38;;;1.23;;
37973;SDS011;23796;51.458;7.000;2022-11-18T04:01:03;6.97;;;1.42;;
37973;SDS011;23796;51.458;7.000;2022-11-18T04:03:37;5.60;;;1.33;;
37973;SDS011;23796;51.458;7.000;2022-11-18T04:06:08;5.15;;;1.50;;
37973;SDS011;23796;51.458;7.000;2022-11-18T04:08:48;5.18;;;1.17;;
37973;SDS011;23796;51.458;7.000;2022-11-18T04:11:21;5.05;;;1.65;;
37973;SDS011;23796;51.458;7.000;2022-11-18T04:14:09;5.07;;;1.58;;
37973;SDS011;23796;51.458;7.000;2022-11-18T04:16:41;5.68;;;1.85;;
37973;SDS011;23796;51.458;7.000;2022-11-18T04:19:10;4.85;;;1.77;;
37973;SDS011;23796;51.458;7.000;2022-11-18T04:21:36;4.90;;;1.60;;
37973;SDS011;23796;51.458;7.000;2022-11-18T04:24:04;5.70;;;1.50;;
37973;SDS011;23796;51.458;7.000;2022-11-18T04:26:29;4.88;;;1.65;;
37973;SDS011;23796;51.458;7.000;2022-11-18T04:29:00;6.95;;;1.88;;
37973;SDS011;23796;51.458;7.000;2022-11-18T04:31:26;4.57;;;1.50;;
37973;SDS011;23796;51.458;7.000;2022-11-18T04:33:51;6.93;;;1.70;;
37973;SDS011;23796;51.458;7.000;2022-11-18T04:36:19;5.53;;;1.98;;
37973;SDS011;23796;51.458;7.000;2022-11-18T04:38:45;6.05;;;1.98;;
37973;SDS011;23796;51.458;7.000;2022-11-18T04:41:10;6.93;;;1.80;;
37973;SDS011;23796;51.458;7.000;2022-11-18T04:43:39;7.40;;;1.80;;
37973;SDS011;23796;51.458;7.000;2022-11-18T04:46:07;5.05;;;1.75;;
37973;SDS011;23796;51.458;7.000;2022-11-18T04:48:33;5.60;;;1.80;;
37973;SDS011;23796;51.458;7.000;2022-11-18T04:51:06;5.63;;;2.28;;
37973;SDS011;23796;51.458;7.000;2022-11-18T04:53:33;6.63;;;2.13;;
37973;SDS011;23796;51.458;7.000;2022-11-18T04:56:07;6.10;;;1.50;;
37973;SDS011;23796;51.458;7.000;2022-11-18T04:58:32;7.47;;;2.00;;
37973;SDS011;23796;51.458;7.000;2022-11-18T05:00:58;4.82;;;1.83;;
37973;SDS011;23796;51.458;7.000;2022-11-18T05:03:24;4.10;;;1.52;;
37973;SDS011;23796;51.458;7.000;2022-11-18T05:05:51;6.03;;;2.05;;
37973;SDS011;23796;51.458;7.000;2022-11-18T05:08:19;4.75;;;1.50;;
37973;SDS011;23796;51.458;7.000;2022-11-18T05:10:45;4.85;;;1.38;;
37973;SDS011;23796;51.458;7.000;2022-11-18T05:13:11;5.63;;;1.75;;
37973;SDS011;23796;51.458;7.000;2022-11-18T05:15:37;7.10;;;1.80;;
37973;SDS011;23796;51.458;7.000;2022-11-18T05:18:02;5.80;;;1.77;;
37973;SDS011;23796;51.458;7.000;2022-11-18T05:20:31;5.28;;;1.63;;
37973;SDS011;23796;51.458;7.000;2022-11-18T05:22:56;4.22;;;1.45;;
37973;SDS011;23796;51.458;7.000;2022-11-18T05:25:22;6.47;;;1.90;;
37973;SDS011;23796;51.458;7.000;2022-11-18T05:27:47;5.90;;;2.05;;
37973;SDS011;23796;51.458;7.000;2022-11-18T05:30:18;5.85;;;1.75;;
37973;SDS011;23796;51.458;7.000;2022-11-18T05:32:48;6.15;;;2.15;;
37973;SDS011;23796;51.458;7.000;2022-11-18T05:35:16;6.22;;;2.58;;
37973;SDS011;23796;51.458;7.000;2022-11-18T05:37:44;5.63;;;1.80;;
37973;SDS011;23796;51.458;7.000;2022-11-18T05:40:12;5.40;;;1.70;;
37973;SDS011;23796;51.458;7.000;2022-11-18T05:42:40;7.70;;;2.17;;
37973;SDS011;23796;51.458;7.000;2022-11-18T05:45:24;8.25;;;2.25;;
37973;SDS011;23796;51.458;7.000;2022-11-18T05:47:49;5.78;;;1.63;;
37973;SDS011;23796;51.458;7.000;2022-11-18T05:50:26;7.03;;;2.10;;
37973;SDS011;23796;51.458;7.000;2022-11-18T05:52:52;6.07;;;1.58;;
37973;SDS011;23796;51.458;7.000;2022-11-18T05:55:23;4.78;;;1.80;;
37973;SDS011;23796;51.458;7.000;2022-11-18T05:57:53;6.63;;;1.90;;
37973;SDS011;23796;51.458;7.000;2022-11-18T06:00:19;5.00;;;1.70;;
37973;SDS011;23796;51.458;7.000;2022-11-18T06:02:45;5.53;;;2.13;;
37973;SDS011;23796;51.458;7.000;2022-11-18T06:05:15;7.72;;;2.30;;
37973;SDS011;23796;51.458;7.000;2022-11-18T06:07:45;7.22;;;1.77;;
37973;SDS011;23796;51.458;7.000;2022-11-18T06:10:11;4.85;;;1.83;;
37973;SDS011;23796;51.458;7.000;2022-11-18T06:12:43;6.45;;;2.38;;
37973;SDS011;23796;51.458;7.000;2022-11-18T06:15:13;4.78;;;1.75;;
37973;SDS011;23796;51.458;7.000;2022-11-18T06:17:45;6.18;;;2.42;;
37973;SDS011;23796;51.458;7.000;2022-11-18T06:20:19;6.65;;;2.05;;
37973;SDS011;23796;51.458;7.000;2022-11-18T06:22:45;6.30;;;1.92;;
37973;SDS011;23796;51.458;7.000;2022-11-18T06:25:14;6.38;;;2.08;;
37973;SDS011;23796;51.458;7.000;2022-11-18T06:27:42;5.32;;;2.13;;
37973;SDS011;23796;51.458;7.000;2022-11-18T06:33:11;6.68;;;2.10;;
37973;SDS011;23796;51.458;7.000;2022-11-18T06:35:43;8.07;;;2.28;;
37973;SDS011;23796;51.458;7.000;2022-11-18T06:38:09;4.38;;;1.35;;
37973;SDS011;23796;51.458;7.000;2022-11-18T06:40:38;6.93;;;2.10;;
37973;SDS011;23796;51.458;7.000;2022-11-18T06:43:11;5.88;;;2.15;;
37973;SDS011;23796;51.458;7.000;2022-11-18T06:45:58;4.35;;;1.63;;
37973;SDS011;23796;51.458;7.000;2022-11-18T06:48:46;8.52;;;2.45;;
37973;SDS011;23796;51.458;7.000;2022-11-18T06:51:12;6.68;;;2.33;;
37973;SDS011;23796;51.458;7.000;2022-11-18T06:53:38;6.60;;;1.70;;
37973;SDS011;23796;51.458;7.000;2022-11-18T06:56:05;7.18;;;1.83;;
37973;SDS011;23796;51.458;7.000;2022-11-18T06:58:33;6.57;;;1.95;;
37973;SDS011;23796;51.458;7.000;2022-11-18T07:03:43;4.43;;;1.40;;
37973;SDS011;23796;51.458;7.000;2022-11-18T07:06:16;4.90;;;1.80;;
37973;SDS011;23796;51.458;7.000;2022-11-18T07:08:48;8.30;;;2.45;;
37973;SDS011;23796;51.458;7.000;2022-11-18T07:11:25;5.55;;;2.30;;
37973;SDS011;23796;51.458;7.000;2022-11-18T07:13:57;6.88;;;1.73;;
37973;SDS011;23796;51.458;7.000;2022-11-18T07:16:25;6.32;;;1.85;;
37973;SDS011;23796;51.458;7.000;2022-11-18T07:18:54;6.22;;;2.55;;
37973;SDS011;23796;51.458;7.000;2022-11-18T07:21:23;6.10;;;2.20;;
37973;SDS011;23796;51.458;7.000;2022-11-18T07:24:03;7.57;;;2.47;;
37973;SDS011;23796;51.458;7.000;2022-11-18T07:26:37;5.78;;;1.80;;
37973;SDS011;23796;51.458;7.000;2022-11-18T07:29:06;5.35;;;1.73;;
37973;SDS011;23796;51.458;7.000;2022-11-18T07:31:35;6.75;;;1.60;;
37973;SDS011;23796;51.458;7.000;2022-11-18T07:36:41;4.68;;;1.58;;
37973;SDS011;23796;51.458;7.000;2022-11-18T07:39:07;5.88;;;2.08;;
37973;SDS011;23796;51.458;7.000;2022-11-18T07:41:33;5.97;;;1.80;;
37973;SDS011;23796;51.458;7.000;2022-11-18T07:44:00;6.28;;;1.90;;
37973;SDS011;23796;51.458;7.000;2022-11-18T07:46:36;3.72;;;1.52;;
37973;SDS011;23796;51.458;7.000;2022-11-18T07:49:03;5.45;;;1.90;;
37973;SDS011;23796;51.458;7.000;2022-11-18T07:51:32;6.20;;;2.35;;
37973;SDS011;23796;51.458;7.000;2022-11-18T07:53:59;3.95;;;1.70;;
37973;SDS011;23796;51.458;7.000;2022-11-18T07:56:26;6.55;;;2.03;;
37973;SDS011;23796;51.458;7.000;2022-11-18T07:58:54;5.85;;;1.83;;
37973;SDS011;23796;51.458;7.000;2022-11-18T08:01:28;4.35;;;1.67;;
37973;SDS011;23796;51.458;7.000;2022-11-18T08:04:07;6.28;;;1.85;;
37973;SDS011;23796;51.458;7.000;2022-11-18T08:06:40;4.88;;;1.63;;
37973;SDS011;23796;51.458;7.000;2022-11-18T08:09:09;7.68;;;2.03;;
37973;SDS011;23796;51.458;7.000;2022-11-18T08:11:35;7.05;;;1.85;;
37973;SDS011;23796;51.458;7.000;2022-11-18T08:14:01;6.45;;;2.03;;
37973;SDS011;23796;51.458;7.000;2022-11-18T08:16:29;5.72;;;1.83;;
37973;SDS011;23796;51.458;7.000;2022-11-18T08:18:58;5.70;;;2.15;;
37973;SDS011;23796;51.458;7.000;2022-11-18T08:21:27;6.93;;;2.22;;
37973;SDS011;23796;51.458;7.000;2022-11-18T08:24:01;9.20;;;2.33;;
37973;SDS011;23796;51.458;7.000;2022-11-18T08:26:38;6.88;;;1.88;;
37973;SDS011;23796;51.458;7.000;2022-11-18T08:29:06;4.85;;;2.13;;
37973;SDS011;23796;51.458;7.000;2022-11-18T08:31:39;6.90;;;2.10;;
37973;SDS011;23796;51.458;7.000;2022-11-18T08:34:05;7.13;;;2.92;;
37973;SDS011;23796;51.458;7.000;2022-11-18T08:36:32;6.93;;;2.53;;
37973;SDS011;23796;51.458;7.000;2022-11-18T08:39:06;8.45;;;3.10;;
37973;SDS011;23796;51.458;7.000;2022-11-18T08:41:39;7.45;;;2.75;;
37973;SDS011;23796;51.458;7.000;2022-11-18T08:44:06;6.07;;;2.47;;
37973;SDS011;23796;51.458;7.000;2022-11-18T08:46:34;7.22;;;2.60;;
37973;SDS011;23796;51.458;7.000;2022-11-18T08:49:00;7.13;;;2.33;;
37973;SDS011;23796;51.458;7.000;2022-11-18T08:51:27;5.88;;;2.33;;
37973;SDS011;23796;51.458;7.000;2022-11-18T08:53:53;5.57;;;2.35;;
37973;SDS011;23796;51.458;7.000;2022-11-18T08:56:20;6.10;;;3.25;;
37973;SDS011;23796;51.458;7.000;2022-11-18T08:58:47;7.35;;;2.95;;
37973;SDS011;23796;51.458;7.000;2022-11-18T09:01:13;9.40;;;2.13;;
37973;SDS011;23796;51.458;7.000;2022-11-18T09:03:44;4.47;;;2.33;;
37973;SDS011;23796;51.458;7.000;2022-11-18T09:06:19;6.95;;;2.33;;
37973;SDS011;23796;51.458;7.000;2022-11-18T09:08:46;9.73;;;2.22;;
37973;SDS011;23796;51.458;7.000;2022-11-18T09:11:13;7.18;;;2.50;;
37973;SDS011;23796;51.458;7.000;2022-11-18T09:13:43;4.13;;;2.13;;
37973;SDS011;23796;51.458;7.000;2022-11-18T09:16:12;8.60;;;2.20;;
37973;SDS011;23796;51.458;7.000;2022-11-18T09:18:40;5.13;;;1.90;;
37973;SDS011;23796;51.458;7.000;2022-11-18T09:21:20;6.47;;;2.28;;
37973;SDS011;23796;51.458;7.000;2022-11-18T09:23:46;7.22;;;1.95;;
37973;SDS011;23796;51.458;7.000;2022-11-18T09:26:15;5.80;;;2.35;;
37973;SDS011;23796;51.458;7.000;2022-11-18T09:28:47;7.28;;;2.50;;
37973;SDS011;23796;51.458;7.000;2022-11-18T09:31:24;8.68;;;2.20;;
37973;SDS011;23796;51.458;7.000;2022-11-18T09:33:51;7.60;;;2.45;;
37973;SDS011;23796;51.458;7.000;2022-11-18T09:36:21;6.00;;;2.17;;
37973;SDS011;23796;51.458;7.000;2022-11-18T09:38:51;5.78;;;2.17;;
37973;SDS011;23796;51.458;7.000;2022-11-18T09:49:28;6.13;;;2.67;;
37973;SDS011;23796;51.458;7.000;2022-11-18T09:52:00;7.07;;;2.70;;
37973;SDS011;23796;51.458;7.000;2022-11-18T09:54:44;5.85;;;2.33;;
37973;SDS011;23796;51.458;7.000;2022-11-18T09:57:15;6.88;;;2.75;;
37973;SDS011;23796;51.458;7.000;2022-11-18T09:59:53;6.45;;;2.13;;
37973;SDS011;23796;51.458;7.000;2022-11-18T10:02:46;8.05;;;2.22;;
37973;SDS011;23796;51.458;7.000;2022-11-18T10:08:27;6.47;;;2.45;;
37973;SDS011;23796;51.458;7.000;2022-11-18T10:11:18;7.60;;;2.35;;
37973;SDS011;23796;51.458;7.000;2022-11-18T10:19:35;4.85;;;1.83;;
37973;SDS011;23796;51.458;7.000;2022-11-18T10:25:15;6.80;;;2.25;;
37973;SDS011;23796;51.458;7.000;2022-11-18T10:27:45;8.13;;;2.50;;
37973;SDS011;23796;51.458;7.000;2022-11-18T10:30:16;7.13;;;2.33;;
37973;SDS011;23796;51.458;7.000;2022-11-18T10:33:00;6.78;;;2.33;;
37973;SDS011;23796;51.458;7.000;2022-11-18T10:35:29;6.85;;;1.85;;
37973;SDS011;23796;51.458;7.000;2022-11-18T10:38:06;7.05;;;1.90;;
37973;SDS011;23796;51.458;7.000;2022-11-18T10:40:57;6.80;;;1.63;;
37973;SDS011;23796;51.458;7.000;2022-11-18T10:43:43;5.30;;;1.67;;
37973;SDS011;23796;51.458;7.000;2022-11-18T10:46:18;5.82;;;1.80;;
37973;SDS011;23796;51.458;7.000;2022-11-18T10:51:38;8.88;;;2.05;;
37973;SDS011;23796;51.458;7.000;2022-11-18T10:54:08;7.78;;;1.55;;
37973;SDS011;23796;51.458;7.000;2022-11-18T10:56:56;5.43;;;1.88;;
37973;SDS011;23796;51.458;7.000;2022-11-18T10:59:45;7.20;;;2.23;;
37973;SDS011;23796;51.458;7.000;2022-11-18T11:02:16;5.38;;;2.50;;
37973;SDS011;23796;51.458;7.000;2022-11-18T11:04:48;7.18;;;1.70;;
37973;SDS011;23796;51.458;7.000;2022-11-18T11:07:34;6.90;;;1.60;;
37973;SDS011;23796;51.458;7.000;2022-11-18T11:13:08;8.20;;;2.10;;
37973;SDS011;23796;51.458;7.000;2022-11-18T11:15:46;4.80;;;2.13;;
37973;SDS011;23796;51.458;7.000;2022-11-18T11:18:49;6.85;;;2.25;;
37973;SDS011;23796;51.458;7.000;2022-11-18T11:21:36;6.97;;;2.38;;
37973;SDS011;23796;51.458;7.000;2022-11-18T11:24:07;7.47;;;2.75;;
37973;SDS011;23796;51.458;7.000;2022-11-18T11:33:49;7.32;;;2.38;;
37973;SDS011;23796;51.458;7.000;2022-11-18T11:41:23;7.80;;;2.88;;
37973;SDS011;23796;51.458;7.000;2022-11-18T11:43:53;10.45;;;3.13;;
37973;SDS011;23796;51.458;7.000;2022-11-18T11:46:53;8.70;;;2.72;;
37973;SDS011;23796;51.458;7.000;2022-11-18T11:50:03;8.30;;;3.28;;
37973;SDS011;23796;51.458;7.000;2022-11-18T12:07:06;8.35;;;2.40;;
37973;SDS011;23796;51.458;7.000;2022-11-18T12:12:22;14.20;;;3.13;;
37973;SDS011;23796;51.458;7.000;2022-11-18T12:15:24;7.55;;;2.22;;
37973;SDS011;23796;51.458;7.000;2022-11-18T12:23:16;5.75;;;2.00;;
37973;SDS011;23796;51.458;7.000;2022-11-18T12:26:00;8.55;;;2.78;;
37973;SDS011;23796;51.458;7.000;2022-11-18T12:39:55;4.85;;;1.67;;
37973;SDS011;23796;51.458;7.000;2022-11-18T12:42:38;6.43;;;1.50;;
37973;SDS011;23796;51.458;7.000;2022-11-18T12:53:54;6.28;;;1.60;;
37973;SDS011;23796;51.458;7.000;2022-11-18T12:56:25;6.25;;;1.83;;
37973;SDS011;23796;51.458;7.000;2022-11-18T12:58:53;7.55;;;2.35;;
37973;SDS011;23796;51.458;7.000;2022-11-18T13:01:24;6.13;;;2.03;;
37973;SDS011;23796;51.458;7.000;2022-11-18T13:03:57;6.45;;;1.42;;
37973;SDS011;23796;51.458;7.000;2022-11-18T13:06:39;8.52;;;3.30;;
37973;SDS011;23796;51.458;7.000;2022-11-18T13:12:03;6.63;;;1.90;;
37973;SDS011;23796;51.458;7.000;2022-11-18T13:14:40;5.55;;;1.52;;
37973;SDS011;23796;51.458;7.000;2022-11-18T13:22:59;6.97;;;1.08;;
37973;SDS011;23796;51.458;7.000;2022-11-18T13:36:50;7.70;;;1.60;;
37973;SDS011;23796;51.458;7.000;2022-11-18T13:39:36;10.73;;;2.13;;
37973;SDS011;23796;51.458;7.000;2022-11-18T13:42:26;9.20;;;2.13;;
37973;SDS011;23796;51.458;7.000;2022-11-18T13:45:01;8.48;;;2.08;;
37973;SDS011;23796;51.458;7.000;2022-11-18T13:50:29;5.45;;;1.70;;
37973;SDS011;23796;51.458;7.000;2022-11-18T13:56:18;5.60;;;1.33;;
37973;SDS011;23796;51.458;7.000;2022-11-18T13:58:50;9.00;;;1.85;;
37973;SDS011;23796;51.458;7.000;2022-11-18T14:01:27;8.05;;;1.50;;
37973;SDS011;23796;51.458;7.000;2022-11-18T14:04:01;6.78;;;1.77;;
37973;SDS011;23796;51.458;7.000;2022-11-18T14:06:30;6.90;;;2.92;;
37973;SDS011;23796;51.458;7.000;2022-11-18T14:09:18;4.97;;;1.90;;
37973;SDS011;23796;51.458;7.000;2022-11-18T14:14:41;7.38;;;2.78;;
37973;SDS011;23796;51.458;7.000;2022-11-18T14:17:21;7.30;;;1.70;;
37973;SDS011;23796;51.458;7.000;2022-11-18T14:19:54;5.68;;;1.75;;
37973;SDS011;23796;51.458;7.000;2022-11-18T14:22:32;6.43;;;1.67;;
37973;SDS011;23796;51.458;7.000;2022-11-18T14:31:23;9.73;;;2.00;;
37973;SDS011;23796;51.458;7.000;2022-11-18T14:34:15;6.72;;;1.98;;
37973;SDS011;23796;51.458;7.000;2022-11-18T14:36:51;9.07;;;1.80;;
37973;SDS011;23796;51.458;7.000;2022-11-18T14:39:52;8.20;;;2.13;;
37973;SDS011;23796;51.458;7.000;2022-11-18T14:42:19;5.20;;;1.35;;
37973;SDS011;23796;51.458;7.000;2022-11-18T14:44:45;6.20;;;1.30;;
37973;SDS011;23796;51.458;7.000;2022-11-18T14:47:26;7.60;;;2.17;;
37973;SDS011;23796;51.458;7.000;2022-11-18T14:49:53;7.53;;;2.08;;
37973;SDS011;23796;51.458;7.000;2022-11-18T14:52:19;7.28;;;1.70;;
37973;SDS011;23796;51.458;7.000;2022-11-18T14:54:45;5.55;;;1.40;;
37973;SDS011;23796;51.458;7.000;2022-11-18T14:57:17;5.93;;;2.42;;
37973;SDS011;23796;51.458;7.000;2022-11-18T14:59:43;5.65;;;1.73;;
37973;SDS011;23796;51.458;7.000;2022-11-18T15:02:13;3.65;;;1.20;;
37973;SDS011;23796;51.458;7.000;2022-11-18T15:04:46;6.93;;;2.00;;
37973;SDS011;23796;51.458;7.000;2022-11-18T15:07:15;7.80;;;1.63;;
37973;SDS011;23796;51.458;7.000;2022-11-18T15:09:41;8.32;;;2.10;;
37973;SDS011;23796;51.458;7.000;2022-11-18T15:12:07;11.43;;;1.92;;
37973;SDS011;23796;51.458;7.000;2022-11-18T15:14:42;5.88;;;1.63;;
37973;SDS011;23796;51.458;7.000;2022-11-18T15:17:11;8.10;;;1.98;;
37973;SDS011;23796;51.458;7.000;2022-11-18T15:19:38;6.57;;;2.42;;
37973;SDS011;23796;51.458;7.000;2022-11-18T15:22:05;9.13;;;2.63;;
37973;SDS011;23796;51.458;7.000;2022-11-18T15:24:34;5.03;;;1.73;;
37973;SDS011;23796;51.458;7.000;2022-11-18T15:27:00;9.65;;;1.98;;
37973;SDS011;23796;51.458;7.000;2022-11-18T15:29:29;8.95;;;1.90;;
37973;SDS011;23796;51.458;7.000;2022-11-18T15:31:55;5.68;;;1.88;;
37973;SDS011;23796;51.458;7.000;2022-11-18T15:34:31;8.57;;;1.88;;
37973;SDS011;23796;51.458;7.000;2022-11-18T15:36:57;6.95;;;1.70;;
37973;SDS011;23796;51.458;7.000;2022-11-18T15:39:23;6.13;;;1.80;;
37973;SDS011;23796;51.458;7.000;2022-11-18T15:41:49;7.82;;;2.08;;
37973;SDS011;23796;51.458;7.000;2022-11-18T15:44:15;10.35;;;2.55;;
37973;SDS011;23796;51.458;7.000;2022-11-18T15:46:41;9.38;;;1.92;;
37973;SDS011;23796;51.458;7.000;2022-11-18T15:49:10;10.73;;;2.65;;
37973;SDS011;23796;51.458;7.000;2022-11-18T15:51:37;8.50;;;2.28;;
37973;SDS011;23796;51.458;7.000;2022-11-18T15:54:07;8.73;;;2.50;;
37973;SDS011;23796;51.458;7.000;2022-11-18T15:56:33;7.30;;;2.45;;
37973;SDS011;23796;51.458;7.000;2022-11-18T16:01:30;8.15;;;2.30;;
37973;SDS011;23796;51.458;7.000;2022-11-18T16:03:57;10.82;;;2.22;;
37973;SDS011;23796;51.458;7.000;2022-11-18T16:06:25;8.68;;;2.45;;
37973;SDS011;23796;51.458;7.000;2022-11-18T16:08:51;6.40;;;2.15;;
37973;SDS011;23796;51.458;7.000;2022-11-18T16:11:17;6.75;;;2.22;;
37973;SDS011;23796;51.458;7.000;2022-11-18T16:14:02;7.55;;;2.30;;
37973;SDS011;23796;51.458;7.000;2022-11-18T16:16:29;9.23;;;2.40;;
37973;SDS011;23796;51.458;7.000;2022-11-18T16:18:56;8.70;;;2.38;;
37973;SDS011;23796;51.458;7.000;2022-11-18T16:21:22;8.40;;;2.30;;
37973;SDS011;23796;51.458;7.000;2022-11-18T16:23:49;9.25;;;2.30;;
37973;SDS011;23796;51.458;7.000;2022-11-18T16:26:14;7.90;;;2.47;;
37973;SDS011;23796;51.458;7.000;2022-11-18T16:28:40;7.60;;;2.45;;
37973;SDS011;23796;51.458;7.000;2022-11-18T16:31:08;6.88;;;2.38;;
37973;SDS011;23796;51.458;7.000;2022-11-18T16:33:52;8.80;;;3.10;;
37973;SDS011;23796;51.458;7.000;2022-11-18T16:36:26;9.88;;;2.63;;
37973;SDS011;23796;51.458;7.000;2022-11-18T16:38:54;9.18;;;2.80;;
37973;SDS011;23796;51.458;7.000;2022-11-18T16:41:20;10.95;;;3.10;;
37973;SDS011;23796;51.458;7.000;2022-11-18T16:43:58;5.78;;;2.38;;
37973;SDS011;23796;51.458;7.000;2022-11-18T16:46:25;8.88;;;2.42;;
37973;SDS011;23796;51.458;7.000;2022-11-18T16:48:51;7.60;;;3.25;;
37973;SDS011;23796;51.458;7.000;2022-11-18T16:56:43;7.13;;;2.70;;
37973;SDS011;23796;51.458;7.000;2022-11-18T16:59:10;10.20;;;3.97;;
37973;SDS011;23796;51.458;7.000;2022-11-18T17:01:47;8.68;;;2.75;;
37973;SDS011;23796;51.458;7.000;2022-11-18T17:04:13;9.90;;;3.05;;
37973;SDS011;23796;51.458;7.000;2022-11-18T17:06:39;8.63;;;2.85;;
37973;SDS011;23796;51.458;7.000;2022-11-18T17:09:09;9.20;;;2.78;;
37973;SDS011;23796;51.458;7.000;2022-11-18T17:11:40;6.68;;;2.38;;
37973;SDS011;23796;51.458;7.000;2022-11-18T17:14:06;9.23;;;3.20;;
37973;SDS011;23796;51.458;7.000;2022-11-18T17:16:34;8.65;;;2.78;;
37973;SDS011;23796;51.458;7.000;2022-11-18T17:19:00;7.88;;;2.65;;
37973;SDS011;23796;51.458;7.000;2022-11-18T17:21:27;9.65;;;3.40;;
37973;SDS011;23796;51.458;7.000;2022-11-18T17:23:53;10.57;;;4.10;;
37973;SDS011;23796;51.458;7.000;2022-11-18T17:26:21;8.27;;;2.88;;
37973;SDS011;23796;51.458;7.000;2022-11-18T17:28:50;9.13;;;3.72;;
37973;SDS011;23796;51.458;7.000;2022-11-18T17:31:17;11.85;;;4.18;;
37973;SDS011;23796;51.458;7.000;2022-11-18T17:33:45;10.38;;;4.03;;
37973;SDS011;23796;51.458;7.000;2022-11-18T17:36:16;10.38;;;4.43;;
37973;SDS011;23796;51.458;7.000;2022-11-18T17:38:46;12.30;;;5.07;;
37973;SDS011;23796;51.458;7.000;2022-11-18T17:41:15;8.95;;;4.78;;
37973;SDS011;23796;51.458;7.000;2022-11-18T17:44:02;9.52;;;4.18;;
37973;SDS011;23796;51.458;7.000;2022-11-18T17:46:29;10.05;;;3.60;;
37973;SDS011;23796;51.458;7.000;2022-11-18T17:48:55;10.65;;;3.97;;